Time;durP1;ratioP1;P1;durP2;ratioP2;P2;SDS_P1;SDS_P2;PMS_P1;PMS_P2;Temp;Humidity;BMP_temperature;BMP_pressure;BME280_temperature;BME280_humidity;BME280_pressure;Samples;Min_cycle;Max_cycle;Signal;HPM_P1;HPM_P2
2023/12/07 00:00:57;;;;;;;9.18;6.22;;;4.60;99.90;;;4.67;89.06;100982.19;4888043;28;20865;-70
2023/12/07 00:03:19;;;;;;;10.93;6.30;;;4.60;99.90;;;4.63;89.12;100973.75;4879786;28;24430;-70
2023/12/07 00:05:41;;;;;;;12.75;6.40;;;4.60;99.90;;;4.59;89.41;100977.38;4885977;28;24450;-69
2023/12/07 00:08:03;;;;;;;11.25;6.88;;;4.50;99.90;;;4.53;89.53;100982.81;4885017;28;20786;-70
2023/12/07 00:10:25;;;;;;;11.83;6.23;;;4.50;99.90;;;4.52;90.06;100983.69;4882162;28;24527;-70
2023/12/07 00:12:47;;;;;;;10.27;6.32;;;4.50;99.90;;;4.51;89.97;100989.78;4889817;28;20819;-69
2023/12/07 00:15:10;;;;;;;12.15;7.10;;;4.40;99.90;;;4.52;90.15;100991.44;4881986;28;24992;-70
2023/12/07 00:17:32;;;;;;;12.77;6.95;;;4.40;99.90;;;4.51;90.12;101000.13;4873617;28;24485;-68
2023/12/07 00:19:55;;;;;;;14.05;6.50;;;4.40;99.90;;;4.51;90.04;100999.25;4883915;28;24430;-70
2023/12/07 00:22:17;;;;;;;12.53;6.90;;;4.40;99.90;;;4.48;89.84;100999.38;4890375;28;24995;-70
2023/12/07 00:24:39;;;;;;;12.55;6.90;;;4.40;99.90;;;4.45;89.99;100994.34;4873842;28;21078;-70
2023/12/07 00:27:01;;;;;;;9.35;6.32;;;4.40;99.90;;;4.42;89.86;100989.31;4873018;28;24532;-70
2023/12/07 00:29:23;;;;;;;12.75;6.53;;;4.40;99.90;;;4.39;89.95;101000.59;4882487;28;20769;-69
2023/12/07 00:31:45;;;;;;;11.98;6.70;;;4.30;99.90;;;4.36;90.09;100999.88;4886375;28;24437;-69
2023/12/07 00:34:09;;;;;;;11.60;7.17;;;4.30;99.90;;;4.32;90.15;101006.91;4889675;28;20812;-70
2023/12/07 00:36:31;;;;;;;9.80;6.47;;;4.20;99.90;;;4.30;89.99;101000.97;4884456;28;21166;-70
2023/12/07 00:38:53;;;;;;;10.35;6.28;;;4.20;99.90;;;4.26;90.39;100998.59;4881156;28;24446;-69
2023/12/07 00:41:15;;;;;;;10.90;6.60;;;4.20;99.90;;;4.23;90.07;100991.78;4887718;28;24459;-69
2023/12/07 00:43:37;;;;;;;10.13;6.63;;;4.20;99.90;;;4.19;90.34;100992.81;4883350;28;24485;-70
2023/12/07 00:46:00;;;;;;;9.10;6.15;;;4.10;99.90;;;4.15;89.91;101000.75;4888221;28;24493;-70
2023/12/07 00:48:22;;;;;;;14.45;7.80;;;4.10;99.90;;;4.12;90.59;101006.03;4891521;28;20762;-70
2023/12/07 00:50:44;;;;;;;10.70;7.00;;;4.10;99.90;;;4.11;90.58;101014.69;4893978;28;24426;-70
2023/12/07 00:53:06;;;;;;;10.52;6.43;;;4.00;99.90;;;4.06;90.60;101012.28;4892115;28;24442;-70
2023/12/07 00:55:28;;;;;;;11.43;6.90;;;4.00;99.90;;;3.98;90.43;101003.16;4893544;28;25049;-70
2023/12/07 00:57:50;;;;;;;11.68;6.85;;;3.90;99.90;;;3.91;90.86;101005.13;4890452;28;24431;-67
2023/12/07 01:00:13;;;;;;;11.00;6.70;;;3.90;99.90;;;3.89;90.84;101012.09;4876566;28;24424;-69
2023/12/07 01:02:35;;;;;;;12.48;6.93;;;3.80;99.90;;;3.82;91.45;101008.91;4884492;28;20822;-71
2023/12/07 01:04:57;;;;;;;10.20;6.50;;;3.80;99.90;;;3.78;91.04;101017.66;4882753;28;24511;-68
2023/12/07 01:07:19;;;;;;;10.43;6.40;;;3.80;99.90;;;3.75;91.18;101016.91;4887442;28;20793;-70
2023/12/07 01:09:41;;;;;;;9.43;6.40;;;3.70;99.90;;;3.72;91.45;101011.91;4880624;28;24979;-71
2023/12/07 01:12:03;;;;;;;8.80;6.43;;;3.70;99.90;;;3.70;91.23;101018.84;4877024;28;24511;-70
2023/12/07 01:14:25;;;;;;;12.90;6.43;;;3.70;99.90;;;3.66;91.06;101025.03;4873048;28;24447;-70
2023/12/07 01:16:47;;;;;;;9.90;6.47;;;3.60;99.90;;;3.65;90.90;101028.50;4876470;28;25122;-71
2023/12/07 01:19:14;;;;;;;9.77;5.97;;;3.60;99.90;;;3.61;90.74;101030.34;4879920;28;24801;-70
2023/12/07 01:21:36;;;;;;;9.07;6.22;;;3.60;99.90;;;3.61;91.15;101032.09;4881079;28;20855;-70
2023/12/07 01:23:58;;;;;;;10.68;6.70;;;3.60;99.90;;;3.63;91.35;101033.72;4880330;28;24970;-70
2023/12/07 01:26:33;;;;;;;11.93;6.80;;;3.60;99.90;;;3.62;91.93;101036.38;4892225;28;24450;-70
2023/12/07 01:28:55;;;;;;;10.05;6.60;;;3.60;99.90;;;3.65;91.30;101031.06;4892859;28;24429;-70
2023/12/07 01:31:17;;;;;;;10.82;6.70;;;3.60;99.90;;;3.65;91.93;101031.06;4892473;28;20781;-69
2023/12/07 01:33:39;;;;;;;9.00;6.25;;;3.60;99.90;;;3.65;91.65;101034.50;4891163;28;24495;-70
2023/12/07 01:36:01;;;;;;;8.65;6.28;;;3.60;99.90;;;3.64;91.77;101032.00;4893622;28;21302;-70
2023/12/07 01:38:23;;;;;;;11.45;6.55;;;3.60;99.90;;;3.61;91.41;101039.84;4887283;28;24513;-70
2023/12/07 01:40:45;;;;;;;8.18;6.00;;;3.60;99.90;;;3.62;91.84;101033.78;4885563;28;24999;-70
2023/12/07 01:43:07;;;;;;;9.40;5.90;;;3.60;99.90;;;3.56;91.59;101037.41;4888263;28;24435;-70
2023/12/07 01:45:29;;;;;;;11.00;6.35;;;3.50;99.90;;;3.55;91.68;101042.66;4895387;28;24516;-70
2023/12/07 01:47:54;;;;;;;11.00;6.40;;;3.50;99.90;;;3.49;91.36;101045.44;4882770;28;24506;-71
2023/12/07 01:50:16;;;;;;;8.10;6.10;;;3.50;99.90;;;3.42;91.46;101033.66;4886143;28;20804;-70
2023/12/07 01:52:47;;;;;;;8.90;6.30;;;3.40;99.90;;;3.41;91.83;101042.31;4890049;28;24538;-70
2023/12/07 01:55:10;;;;;;;9.85;6.03;;;3.40;99.90;;;3.40;92.77;101041.47;4880960;28;21340;-67
2023/12/07 01:57:32;;;;;;;9.57;6.50;;;3.40;99.90;;;3.41;92.78;101043.13;4884416;28;24497;-70
2023/12/07 01:59:54;;;;;;;9.43;6.57;;;3.40;99.90;;;3.40;92.82;101035.47;4875522;28;21268;-70
2023/12/07 02:02:16;;;;;;;10.63;6.82;;;3.40;99.90;;;3.39;92.83;101041.50;4893789;28;24546;-70
2023/12/07 02:04:38;;;;;;;11.48;6.75;;;3.30;99.90;;;3.36;92.46;101033.88;4890822;28;20806;-70
2023/12/07 02:07:01;;;;;;;9.75;6.35;;;3.30;99.90;;;3.34;92.33;101040.84;4881883;28;24482;-71
2023/12/07 02:09:23;;;;;;;8.65;6.10;;;3.30;99.90;;;3.30;91.85;101047.81;4891902;28;20785;-70
2023/12/07 02:11:45;;;;;;;10.23;6.57;;;3.30;99.90;;;3.24;91.81;101042.88;4876227;28;21176;-70
2023/12/07 02:14:07;;;;;;;9.83;6.37;;;3.20;99.90;;;3.23;92.06;101043.81;4874334;28;24538;-71
2023/12/07 02:16:46;;;;;;;10.27;6.50;;;3.20;99.90;;;3.15;92.29;101046.63;4887842;28;24971;-69
2023/12/07 02:19:20;;;;;;;11.40;6.97;;;3.10;99.90;;;3.09;92.22;101046.00;4880742;28;24484;-70
2023/12/07 02:21:52;;;;;;;12.35;6.95;;;3.10;99.90;;;3.04;92.96;101042.75;4894576;28;21379;-70
2023/12/07 02:24:21;;;;;;;11.23;6.63;;;3.00;99.90;;;3.00;93.22;101044.59;4888502;28;24446;-71
2023/12/07 02:26:43;;;;;;;9.43;6.20;;;3.00;99.90;;;3.01;92.96;101048.84;4893916;28;20866;-70
2023/12/07 02:29:04;;;;;;;10.75;6.40;;;3.00;99.90;;;3.00;93.72;101044.59;4883670;28;24538;-70
2023/12/07 02:31:28;;;;;;;11.68;6.78;;;3.00;99.90;;;2.97;93.57;101047.28;4884247;28;24435;-70
2023/12/07 02:33:50;;;;;;;11.85;6.88;;;3.00;99.90;;;2.96;93.53;101045.59;4887170;28;25058;-71
2023/12/07 02:36:15;;;;;;;13.45;7.45;;;3.00;99.90;;;3.01;94.58;101037.69;4878099;28;24442;-70
2023/12/07 02:38:38;;;;;;;13.88;7.70;;;3.00;99.90;;;3.07;95.16;101042.63;4884599;28;24480;-71
2023/12/07 02:41:01;;;;;;;13.40;7.30;;;3.00;99.90;;;3.09;94.82;101046.84;4870348;28;24537;-69
2023/12/07 02:43:23;;;;;;;11.23;7.10;;;3.00;99.90;;;3.09;94.43;101046.84;4887871;28;24891;-70
2023/12/07 02:45:46;;;;;;;13.15;7.70;;;3.00;99.90;;;3.09;94.35;101044.28;4895393;28;20765;-70
2023/12/07 02:48:08;;;;;;;12.70;7.47;;;3.10;99.90;;;3.09;94.79;101041.69;4889754;28;24907;-70
2023/12/07 02:50:30;;;;;;;11.70;7.20;;;3.10;99.90;;;3.08;94.27;101044.34;4894130;28;24516;-70
2023/12/07 02:52:52;;;;;;;10.57;6.80;;;3.10;99.90;;;3.02;93.71;101052.28;4879536;28;24445;-70
2023/12/07 02:55:14;;;;;;;9.82;6.40;;;3.00;99.90;;;2.95;93.05;101051.66;4885266;28;24773;-68
2023/12/07 02:57:37;;;;;;;9.50;6.50;;;3.00;99.90;;;2.93;93.08;101048.28;4878238;28;20781;-70
2023/12/07 02:59:59;;;;;;;10.98;7.10;;;2.90;99.90;;;2.91;93.57;101046.66;4891755;28;24442;-70
2023/12/07 03:02:21;;;;;;;13.23;7.60;;;2.90;99.90;;;2.89;93.36;101043.28;4875472;28;24443;-69
2023/12/07 03:04:43;;;;;;;11.15;7.30;;;2.90;99.90;;;2.88;93.79;101045.00;4885285;28;24431;-71
2023/12/07 03:07:05;;;;;;;15.02;7.78;;;2.90;99.90;;;2.84;93.27;101050.31;4882615;28;24478;-70
2023/12/07 03:09:27;;;;;;;13.50;7.50;;;2.80;99.90;;;2.79;93.46;101047.88;4892037;28;24484;-69
2023/12/07 03:11:50;;;;;;;11.38;6.90;;;2.80;99.90;;;2.75;92.68;101043.72;4893306;28;24565;-70
2023/12/07 03:14:12;;;;;;;12.00;7.50;;;2.80;99.90;;;2.74;93.37;101048.94;4892486;28;24447;-70
2023/12/07 03:16:34;;;;;;;12.25;7.20;;;2.70;99.90;;;2.74;92.88;101054.94;4894368;28;24608;-70
2023/12/07 03:18:56;;;;;;;11.82;6.80;;;2.70;99.90;;;2.75;93.53;101051.47;4882007;28;24449;-70
2023/12/07 03:21:18;;;;;;;13.63;7.13;;;2.70;99.90;;;2.77;93.49;101057.41;4879345;28;24454;-70
2023/12/07 03:23:39;;;;;;;10.82;7.30;;;2.70;99.90;;;2.78;92.90;101060.84;4881175;28;25035;-70
2023/12/07 03:26:01;;;;;;;11.35;7.18;;;2.70;99.90;;;2.76;92.82;101053.16;4886158;28;24992;-70
2023/12/07 03:28:23;;;;;;;11.25;7.30;;;2.70;99.90;;;2.75;93.48;101068.66;4883919;28;24503;-71
2023/12/07 03:30:45;;;;;;;11.95;7.00;;;2.70;99.90;;;2.74;93.71;101065.25;4893389;28;20800;-70
2023/12/07 03:33:07;;;;;;;12.00;7.00;;;2.70;99.90;;;2.70;93.71;101061.09;4889169;28;24500;-70
2023/12/07 03:35:29;;;;;;;11.65;6.72;;;2.70;99.90;;;2.64;92.95;101061.28;4882771;28;24477;-70
2023/12/07 03:37:51;;;;;;;10.35;7.10;;;2.60;99.90;;;2.62;93.64;101059.66;4875936;28;24455;-70
2023/12/07 03:40:13;;;;;;;13.40;7.15;;;2.60;99.90;;;2.58;92.95;101061.47;4875788;28;24428;-68
2023/12/07 03:42:35;;;;;;;10.52;7.07;;;2.60;99.90;;;2.58;93.65;101063.22;4876668;28;24454;-70
2023/12/07 03:45:17;;;;;;;9.95;6.45;;;2.60;99.90;;;2.53;93.22;101068.53;4876876;28;24436;-68
2023/12/07 03:47:38;;;;;;;11.82;6.80;;;2.50;99.90;;;2.54;93.26;101072.78;4879196;28;25147;-70
2023/12/07 03:50:00;;;;;;;11.88;6.95;;;2.50;99.90;;;2.52;93.27;101078.88;4872963;28;24493;-70
2023/12/07 03:52:22;;;;;;;10.98;7.20;;;2.50;99.90;;;2.51;93.24;101072.03;4878290;28;24434;-70
2023/12/07 03:54:45;;;;;;;11.20;6.75;;;2.50;99.90;;;2.50;93.40;101072.91;4886031;28;24524;-70
2023/12/07 03:57:07;;;;;;;11.65;6.70;;;2.50;99.90;;;2.50;93.33;101076.34;4882429;28;25052;-70
2023/12/07 03:59:28;;;;;;;11.27;7.00;;;2.50;99.90;;;2.49;93.35;101078.97;4876207;28;25070;-69
2023/12/07 04:01:50;;;;;;;12.73;7.15;;;2.50;99.90;;;2.52;93.05;101078.88;4893585;28;24994;-69
2023/12/07 04:04:12;;;;;;;11.75;7.00;;;2.50;99.90;;;2.50;93.34;101073.78;4885159;28;24500;-70
2023/12/07 04:06:34;;;;;;;11.52;6.90;;;2.50;99.90;;;2.47;93.21;101073.84;4893893;28;24457;-70
2023/12/07 04:08:56;;;;;;;11.38;7.00;;;2.50;99.90;;;2.45;93.24;101073.06;4878608;28;24438;-70
2023/12/07 04:11:18;;;;;;;10.57;7.03;;;2.50;99.90;;;2.45;93.88;101079.97;4890088;28;24530;-70
2023/12/07 04:13:41;;;;;;;11.48;7.18;;;2.50;99.90;;;2.46;94.28;101085.06;4872609;28;24459;-69
2023/12/07 04:16:04;;;;;;;11.48;6.80;;;2.50;99.90;;;2.47;93.47;101081.56;4889273;28;24430;-70
2023/12/07 04:18:26;;;;;;;11.07;7.15;;;2.50;99.90;;;2.44;93.73;101076.53;4892291;28;25011;-69
2023/12/07 04:20:48;;;;;;;10.90;7.00;;;2.50;99.90;;;2.43;93.52;101069.69;4893066;28;24427;-70
2023/12/07 04:23:10;;;;;;;12.93;7.15;;;2.40;99.90;;;2.42;93.73;101072.31;4885357;28;24451;-70
2023/12/07 04:25:32;;;;;;;10.15;6.60;;;2.40;99.90;;;2.39;93.69;101078.41;4883987;28;24984;-71
2023/12/07 04:27:54;;;;;;;13.55;7.65;;;2.40;99.90;;;2.34;93.74;101081.13;4892623;28;24546;-70
2023/12/07 04:30:16;;;;;;;9.88;7.22;;;2.40;99.90;;;2.28;93.33;101085.63;4892574;28;25260;-67
2023/12/07 04:32:39;;;;;;;10.48;6.97;;;2.30;99.90;;;2.30;93.60;101089.00;4894277;28;24542;-70
2023/12/07 04:35:01;;;;;;;12.50;7.03;;;2.30;99.90;;;2.30;93.69;101089.00;4886321;28;24923;-69
2023/12/07 04:37:23;;;;;;;12.60;7.20;;;2.30;99.90;;;2.29;93.41;101090.75;4882459;28;24829;-71
2023/12/07 04:39:45;;;;;;;13.13;7.60;;;2.30;99.90;;;2.28;93.20;101094.19;4885023;28;24968;-69
2023/12/07 04:42:07;;;;;;;12.30;7.40;;;2.30;99.90;;;2.22;93.61;101096.97;4878319;28;24472;-71
2023/12/07 04:44:31;;;;;;;11.07;7.20;;;2.20;99.90;;;2.19;93.88;101099.63;4887470;28;24496;-69
2023/12/07 04:46:57;;;;;;;13.07;7.63;;;2.20;99.90;;;2.17;93.91;101098.81;4886501;28;24486;-70
2023/12/07 04:49:19;;;;;;;12.53;7.43;;;2.20;99.90;;;2.16;93.82;101093.72;4890420;28;24515;-70
2023/12/07 04:51:42;;;;;;;13.30;7.68;;;2.20;99.90;;;2.16;93.17;101091.16;4892783;28;24466;-70
2023/12/07 04:54:04;;;;;;;14.13;7.97;;;2.20;99.90;;;2.16;94.47;101101.44;4889700;28;24443;-70
2023/12/07 04:56:41;;;;;;;12.50;7.55;;;2.20;99.90;;;2.15;93.90;101099.78;4879573;28;24440;-70
2023/12/07 04:59:02;;;;;;;11.68;7.72;;;2.20;99.90;;;2.15;94.21;101100.59;4873125;28;24907;-70
2023/12/07 05:01:24;;;;;;;11.80;7.43;;;2.20;99.90;;;2.13;94.26;101096.41;4872487;28;25242;-70
2023/12/07 05:03:47;;;;;;;11.30;7.03;;;2.10;99.90;;;2.10;93.96;101093.91;4886603;28;24431;-70
2023/12/07 05:06:11;;;;;;;14.18;7.75;;;2.10;99.90;;;2.10;94.09;101101.63;4893329;28;24430;-69
2023/12/07 05:08:36;;;;;;;13.18;7.80;;;2.10;99.90;;;2.06;93.96;101090.59;4890714;28;24462;-70
2023/12/07 05:10:58;;;;;;;13.02;7.70;;;2.10;99.90;;;2.04;94.57;101092.38;4883913;28;24434;-70
2023/12/07 05:13:20;;;;;;;12.18;7.45;;;2.10;99.90;;;2.03;94.03;101088.09;4894121;28;24476;-71
2023/12/07 05:15:42;;;;;;;14.48;7.50;;;2.10;99.90;;;2.02;94.51;101091.56;4886620;28;24605;-70
2023/12/07 05:18:05;;;;;;;12.50;7.60;;;2.00;99.90;;;2.04;94.69;101099.25;4885030;28;24844;-70
2023/12/07 05:20:29;;;;;;;13.40;7.95;;;2.10;99.90;;;2.04;93.95;101094.09;4893786;28;24564;-69
2023/12/07 05:22:51;;;;;;;13.35;7.93;;;2.00;99.90;;;2.01;94.80;101081.31;4891919;28;24889;-70
2023/12/07 05:25:13;;;;;;;16.08;8.93;;;2.00;99.90;;;2.01;94.18;101089.03;4897346;28;24459;-70
2023/12/07 05:27:35;;;;;;;14.38;7.95;;;2.00;99.90;;;2.00;94.02;101089.94;4895601;28;24523;-70
2023/12/07 05:29:57;;;;;;;14.57;8.10;;;2.00;99.90;;;1.98;94.22;101086.56;4895782;28;24433;-70
2023/12/07 05:32:18;;;;;;;12.85;7.82;;;2.00;99.90;;;2.03;95.03;101092.41;4894793;28;24534;-70
2023/12/07 05:34:41;;;;;;;13.88;8.50;;;2.00;99.90;;;2.03;95.35;101090.69;4897354;28;25033;-70
2023/12/07 05:37:04;;;;;;;13.80;7.90;;;2.00;99.90;;;2.02;94.51;101091.56;4896585;28;24569;-69
2023/12/07 05:39:26;;;;;;;13.93;8.25;;;2.00;99.90;;;2.03;95.14;101095.81;4880252;28;25011;-70
2023/12/07 05:41:47;;;;;;;13.55;7.72;;;2.00;99.90;;;2.03;94.20;101106.13;4896836;28;24525;-68
2023/12/07 05:44:09;;;;;;;12.97;7.87;;;2.10;99.90;;;1.97;94.57;101090.00;4893824;28;24532;-70
2023/12/07 05:46:32;;;;;;;12.77;7.95;;;2.00;99.90;;;1.94;94.43;101088.38;4896989;28;24521;-70
2023/12/07 05:48:54;;;;;;;12.65;7.43;;;2.00;99.90;;;1.94;94.77;101090.94;4889115;28;24852;-70
2023/12/07 05:51:20;;;;;;;13.13;7.87;;;2.00;99.90;;;1.95;94.85;101091.78;4893619;28;24443;-68
2023/12/07 05:53:42;;;;;;;12.52;7.95;;;2.00;99.90;;;1.94;95.25;101093.50;4891349;28;24450;-70
2023/12/07 05:56:05;;;;;;;14.88;8.38;;;2.00;99.90;;;1.95;95.22;101096.94;4893885;28;24534;-71
2023/12/07 05:58:27;;;;;;;13.60;8.00;;;2.00;99.90;;;1.97;95.31;101090.00;4895396;28;24461;-70
2023/12/07 06:00:49;;;;;;;16.10;8.73;;;2.00;99.90;;;2.01;95.12;101089.03;4890335;28;24453;-70
2023/12/07 06:03:11;;;;;;;14.00;8.30;;;2.00;99.90;;;1.99;94.59;101096.81;4894074;28;24816;-70
2023/12/07 06:05:33;;;;;;;13.55;8.10;;;2.00;99.90;;;1.95;95.17;101104.66;4893086;28;24527;-67
2023/12/07 06:07:55;;;;;;;12.98;8.35;;;2.00;99.90;;;1.91;95.70;101105.63;4894303;28;24541;-68
2023/12/07 06:10:17;;;;;;;15.30;8.80;;;1.90;99.90;;;1.90;95.27;101089.34;4893889;28;24427;-70
2023/12/07 06:12:39;;;;;;;13.57;8.25;;;1.90;99.90;;;1.90;95.53;101099.66;4894831;28;24510;-69
2023/12/07 06:15:01;;;;;;;13.60;8.40;;;1.90;99.90;;;1.89;95.83;101103.13;4886184;28;25068;-70
2023/12/07 06:17:23;;;;;;;14.55;8.57;;;1.90;99.90;;;1.90;95.42;101104.78;4890331;28;25165;-70
2023/12/07 06:19:45;;;;;;;13.50;8.20;;;1.90;99.90;;;1.90;95.20;101101.38;4885011;28;24542;-70
2023/12/07 06:22:07;;;;;;;16.55;8.60;;;1.90;99.90;;;1.89;95.60;101100.53;4895009;28;24426;-70
2023/12/07 06:24:29;;;;;;;13.73;8.20;;;1.90;99.90;;;1.91;95.38;101101.34;4893575;28;24867;-68
2023/12/07 06:26:52;;;;;;;14.20;8.30;;;1.90;99.90;;;1.95;95.69;101096.94;4895457;28;24522;-68
2023/12/07 06:29:13;;;;;;;19.73;11.85;;;1.90;99.90;;;1.96;95.66;101099.47;4892358;28;24461;-68
2023/12/07 06:31:35;;;;;;;19.75;13.13;;;2.00;99.90;;;1.95;94.87;101112.38;4893876;28;24473;-70
2023/12/07 06:33:57;;;;;;;17.13;10.07;;;2.00;99.90;;;1.92;94.72;101103.00;4892716;28;24546;-70
2023/12/07 06:36:21;;;;;;;16.13;8.93;;;1.90;99.90;;;1.89;94.65;101110.84;4896335;28;24454;-70
2023/12/07 06:38:43;;;;;;;14.80;9.10;;;1.90;99.90;;;1.87;95.09;101110.03;4888171;28;24524;-70
2023/12/07 06:41:05;;;;;;;16.33;8.48;;;1.90;99.90;;;1.88;95.53;101110.88;4883365;28;24431;-69
2023/12/07 06:43:27;;;;;;;16.80;9.93;;;1.90;99.90;;;1.88;94.89;101108.28;4888010;28;24996;-70
2023/12/07 06:45:49;;;;;;;12.43;8.07;;;1.90;99.90;;;1.90;95.30;101103.94;4887444;28;24485;-70
2023/12/07 06:48:11;;;;;;;14.27;8.00;;;1.90;99.90;;;1.88;95.36;101105.72;4888517;28;24451;-70
2023/12/07 06:50:33;;;;;;;17.08;8.65;;;1.90;99.90;;;1.87;95.01;101110.03;4885273;28;24450;-69
2023/12/07 06:52:55;;;;;;;13.88;8.15;;;1.90;99.90;;;1.89;95.15;101115.13;4882068;28;24449;-68
2023/12/07 06:55:17;;;;;;;14.27;8.70;;;1.90;99.90;;;1.89;96.06;101123.72;4880982;28;24994;-68
2023/12/07 06:57:39;;;;;;;15.50;8.70;;;1.90;99.90;;;1.88;95.37;101126.31;4886362;28;24473;-70
2023/12/07 07:00:05;;;;;;;16.23;9.20;;;1.90;99.90;;;1.86;95.27;101120.34;4887401;28;24531;-70
2023/12/07 07:02:27;;;;;;;14.13;8.20;;;1.90;99.90;;;1.84;95.52;101122.13;4893880;28;24431;-70
2023/12/07 07:04:49;;;;;;;17.20;8.52;;;1.90;99.90;;;1.85;95.57;101121.25;4886443;28;24450;-70
2023/12/07 07:07:11;;;;;;;16.33;9.52;;;1.90;99.90;;;1.89;95.63;101125.44;4898277;28;24798;-71
2023/12/07 07:09:33;;;;;;;15.68;9.05;;;1.90;99.90;;;1.93;95.09;101122.72;4878307;28;24471;-67
2023/12/07 07:11:55;;;;;;;15.30;8.80;;;1.90;99.90;;;1.98;95.42;101120.84;4879899;28;24466;-71
2023/12/07 07:14:17;;;;;;;18.73;9.13;;;1.90;99.90;;;2.01;94.90;101127.63;4879904;28;24467;-70
2023/12/07 07:16:39;;;;;;;14.50;8.53;;;2.00;99.90;;;2.01;94.41;101132.78;4881908;28;24574;-70
2023/12/07 07:19:01;;;;;;;14.93;8.90;;;2.00;99.90;;;1.99;94.32;101140.56;4885630;28;24441;-70
2023/12/07 07:21:23;;;;;;;15.10;9.00;;;2.00;99.90;;;1.98;94.64;101140.63;4885646;28;24872;-70
2023/12/07 07:23:46;;;;;;;15.57;9.43;;;2.00;99.90;;;2.00;94.52;101152.53;4886171;28;24529;-70
2023/12/07 07:26:08;;;;;;;14.70;9.20;;;2.00;99.90;;;2.02;93.95;101148.16;4883305;28;25075;-70
2023/12/07 07:28:30;;;;;;;16.38;9.73;;;2.00;99.90;;;2.08;94.91;101148.03;4884998;28;24465;-70
2023/12/07 07:30:53;;;;;;;15.35;9.52;;;2.00;99.90;;;2.16;94.82;101148.63;4881612;28;24443;-71
2023/12/07 07:33:15;;;;;;;17.58;10.10;;;2.10;99.90;;;2.25;94.70;101147.53;4886276;28;25121;-70
2023/12/07 07:35:37;;;;;;;15.57;8.90;;;2.20;99.90;;;2.29;94.34;101149.13;4884268;28;24427;-70
2023/12/07 07:37:58;;;;;;;17.52;10.10;;;2.30;99.90;;;2.28;93.70;101153.41;4897743;28;24541;-70
2023/12/07 07:40:21;;;;;;;17.58;9.57;;;2.30;99.90;;;2.29;93.62;101152.53;4886280;28;25043;-69
2023/12/07 07:42:43;;;;;;;15.53;9.50;;;2.30;99.90;;;2.31;93.94;101147.34;4894469;28;24435;-70
2023/12/07 07:45:08;;;;;;;16.98;9.25;;;2.30;99.90;;;2.38;94.13;101149.66;4884984;28;25008;-69
2023/12/07 07:47:30;;;;;;;16.38;9.98;;;2.30;99.90;;;2.47;95.06;101153.69;4884222;28;24568;-69
2023/12/07 07:49:52;;;;;;;18.60;10.20;;;2.40;99.90;;;2.52;94.66;101162.13;4886840;28;24427;-68
2023/12/07 07:52:14;;;;;;;17.50;9.63;;;2.40;99.90;;;2.58;94.31;101166.28;4884321;28;24960;-70
2023/12/07 07:54:36;;;;;;;18.17;10.20;;;2.50;99.90;;;2.62;93.61;101153.22;4886163;28;24485;-70
2023/12/07 07:56:58;;;;;;;17.92;10.00;;;2.50;99.90;;;2.69;94.06;101149.59;4883745;28;24896;-70
2023/12/07 07:59:20;;;;;;;17.00;10.30;;;2.60;99.90;;;2.76;93.63;101139.94;4887816;28;24468;-68
2023/12/07 08:01:42;;;;;;;17.48;9.55;;;2.60;99.90;;;2.79;93.63;101135.50;4876067;28;24447;-70
2023/12/07 08:04:04;;;;;;;16.52;9.75;;;2.70;99.90;;;2.85;93.88;101130.19;4887726;28;24443;-70
2023/12/07 08:06:26;;;;;;;19.77;10.75;;;2.70;99.90;;;2.88;92.91;101132.63;4890302;28;24447;-70
2023/12/07 08:08:49;;;;;;;20.83;11.65;;;2.80;99.90;;;2.96;93.09;101127.25;4890569;28;25076;-71
2023/12/07 08:11:14;;;;;;;22.40;12.40;;;2.80;99.90;;;3.02;93.11;101121.88;4892406;28;24434;-71
2023/12/07 08:13:37;;;;;;;24.52;12.27;;;2.90;99.90;;;3.06;92.46;101111.44;4892165;28;24533;-67
2023/12/07 08:15:59;;;;;;;20.98;11.30;;;2.90;99.90;;;3.03;92.68;101108.94;4890296;28;24488;-70
2023/12/07 08:18:22;;;;;;;23.30;12.15;;;2.90;99.90;;;3.07;92.93;101107.94;4884302;28;24449;-68
2023/12/07 08:20:44;;;;;;;23.40;12.82;;;3.00;99.90;;;3.15;93.19;101107.69;4880833;28;24855;-71
2023/12/07 08:23:06;;;;;;;23.73;12.60;;;3.00;99.90;;;3.19;93.38;101104.13;4890507;28;24515;-68
2023/12/07 08:25:28;;;;;;;23.90;12.65;;;3.10;99.90;;;3.28;93.21;101110.69;4890372;28;24434;-71
2023/12/07 08:27:50;;;;;;;24.48;12.40;;;3.10;99.90;;;3.38;92.71;101109.47;4893705;28;24453;-71
2023/12/07 08:30:12;;;;;;;21.30;11.40;;;3.20;99.90;;;3.45;92.48;101103.22;4892374;28;24431;-68
2023/12/07 08:32:34;;;;;;;20.00;10.90;;;3.20;99.90;;;3.49;92.86;101105.59;4888882;28;24470;-68
2023/12/07 08:34:56;;;;;;;21.45;11.75;;;3.30;99.90;;;3.48;92.52;101101.34;4886225;28;24451;-67
2023/12/07 08:37:18;;;;;;;25.73;11.95;;;3.40;99.90;;;3.48;93.13;101100.50;4890065;28;25054;-69
2023/12/07 08:39:40;;;;;;;27.33;13.40;;;3.30;99.90;;;3.49;92.97;101104.78;4889318;28;24820;-70
2023/12/07 08:42:02;;;;;;;24.48;12.30;;;3.30;99.90;;;3.45;93.60;101100.63;4906579;28;24489;-67
2023/12/07 08:44:24;;;;;;;28.67;13.07;;;3.30;99.90;;;3.49;93.79;101107.38;4885964;28;24520;-69
2023/12/07 08:46:46;;;;;;;30.88;13.65;;;3.40;99.90;;;3.52;94.15;101107.25;4885022;28;24457;-70
2023/12/07 08:49:08;;;;;;;29.65;13.23;;;3.40;99.90;;;3.55;94.03;101114.88;4882046;28;24494;-68
2023/12/07 08:51:30;;;;;;;29.40;13.23;;;3.40;99.90;;;3.55;93.70;101117.47;4881830;28;24437;-71
2023/12/07 08:53:52;;;;;;;30.50;13.07;;;3.40;99.90;;;3.61;94.06;101115.50;4882058;28;24466;-70
2023/12/07 08:56:17;;;;;;;30.58;14.10;;;3.50;99.90;;;3.65;94.20;101116.22;4881812;28;24446;-68
2023/12/07 08:58:39;;;;;;;28.70;13.20;;;3.50;99.90;;;3.67;94.34;101117.88;4885368;28;24985;-69
2023/12/07 09:01:01;;;;;;;25.77;12.75;;;3.50;99.90;;;3.66;93.82;101113.59;4881125;28;24984;-69
2023/12/07 09:03:27;;;;;;;28.87;13.73;;;3.50;99.90;;;3.63;94.20;101123.19;4877896;28;24537;-69
2023/12/07 09:05:49;;;;;;;27.55;13.38;;;3.50;99.90;;;3.55;94.03;101118.31;4884530;28;24432;-68
2023/12/07 09:08:11;;;;;;;26.10;12.80;;;3.40;99.90;;;3.48;94.31;101123.72;4885037;28;21378;-67
2023/12/07 09:10:33;;;;;;;29.38;13.18;;;3.40;99.90;;;3.41;94.43;101125.69;4886590;28;24450;-66
2023/12/07 09:12:55;;;;;;;32.75;13.48;;;3.30;99.90;;;3.36;94.90;101119.00;4885663;28;21220;-66
2023/12/07 09:15:17;;;;;;;33.88;14.80;;;3.30;99.90;;;3.26;95.08;101109.91;4879308;28;25073;-69
2023/12/07 09:17:41;;;;;;;29.58;13.77;;;3.20;99.90;;;3.17;96.00;101111.88;4888422;28;20780;-67
2023/12/07 09:20:11;;;;;;;27.70;12.67;;;3.20;99.90;;;3.07;95.81;101113.09;4885642;28;24493;-69
2023/12/07 09:22:34;;;;;;;28.67;13.65;;;3.10;99.90;;;3.05;96.60;101107.16;4888741;28;24512;-68
2023/12/07 09:24:59;;;;;;;28.42;13.82;;;3.00;99.90;;;3.15;97.02;101108.50;4889004;28;24435;-66
2023/12/07 09:27:20;;;;;;;29.27;12.57;;;3.00;99.90;;;3.26;97.72;101109.91;4889028;28;24980;-67
2023/12/07 09:29:43;;;;;;;21.20;10.90;;;3.10;99.90;;;3.30;97.00;101112.31;4889219;28;25020;-69
2023/12/07 09:32:07;;;;;;;22.42;11.02;;;3.10;99.90;;;3.34;96.83;101116.50;4889019;28;24530;-69
2023/12/07 09:34:29;;;;;;;23.23;11.68;;;3.20;99.90;;;3.35;96.66;101101.81;4890286;28;24439;-68
2023/12/07 09:37:08;;;;;;;22.17;11.27;;;3.20;99.90;;;3.39;97.42;101113.72;4887347;28;21195;-70
2023/12/07 09:39:30;;;;;;;23.75;11.38;;;3.20;99.90;;;3.40;97.71;101118.00;4878686;28;24817;-70
2023/12/07 09:41:52;;;;;;;20.17;10.40;;;3.20;99.90;;;3.42;97.84;101116.22;4889126;28;24443;-70
2023/12/07 09:44:14;;;;;;;21.67;10.93;;;3.30;99.90;;;3.42;97.35;101126.53;4884725;28;24449;-69
2023/12/07 09:46:37;;;;;;;22.60;10.80;;;3.30;99.90;;;3.42;97.17;101126.53;4885089;28;24987;-70
2023/12/07 09:48:59;;;;;;;22.90;11.48;;;3.20;99.90;;;3.46;98.02;101121.22;4882774;28;21392;-69
2023/12/07 09:51:22;;;;;;;22.35;10.80;;;3.30;99.90;;;3.49;97.49;101121.09;4880906;28;24508;-67
2023/12/07 09:53:49;;;;;;;21.17;10.45;;;3.30;99.90;;;3.44;97.79;101109.25;4885999;28;24466;-70
2023/12/07 09:56:11;;;;;;;24.08;10.88;;;3.30;99.90;;;3.50;97.58;101111.63;4883503;28;24446;-70
2023/12/07 09:58:33;;;;;;;22.73;10.23;;;3.40;99.90;;;3.46;97.51;101110.03;4885475;28;24488;-69